UPSVAC Airport Information Service

Billings Logan International Airport

ICAO: KBIL Country: United States
Latitude: 45.8077 Longitude: -108.542
Latest Arrival : UPS2335 (KSDF-KBIL) Latest Departure : UPSJUMP (KBIL-KSDF)


WX CaptureLIVE
Data provided by noaa.gov | Fetched at 23:23:04

METAR : KBIL 142253Z 13014KT 10SM FEW110 FEW180 BKN250 39/06 A2991 RMK AO2 SLP083 T03890056

TAF : KBIL 141737Z 1418/1518 VRB03KT P6SM FEW100 FM142000 09012KT P6SM FEW100 FM150200 VRB06KT P6SM SKC FM151200 23008KT P6SM SKC


Runway Data for KBIL
Data provided by openaviationdata.com

Runway ID Mag Var Hdg Length Elevation Surface ILS Freq ILS Id ILS Slope
7 14 69° 5489 ft 3567 ft Asphalt -- -- --
10L 14 97° 10499 ft 3567 ft Asphalt 110.3 IBIL 3
10R 14 97° 3794 ft 3567 ft Asphalt -- -- --
25 14 249° 5489 ft 3567 ft Asphalt -- -- --
28L 14 277° 3794 ft 3567 ft Asphalt -- -- --
28R 14 277° 10499 ft 3567 ft Asphalt 111.5 IBMO 3

Billings Logan International Airport, United States
Use only for reference purposes



Not for navigational purposes.